Time;durP1;ratioP1;P1;durP2;ratioP2;P2;SDS_P1;SDS_P2;PMS_P1;PMS_P2;Temp;Humidity;BMP_temperature;BMP_pressure;BME280_temperature;BME280_humidity;BME280_pressure;Samples;Min_cycle;Max_cycle;Signal;HPM_P1;HPM_P2
2022/01/14 00:00:05;;;;;;;10.10;4.70;;;-1.00;99.90;;;;;;5107286;28;20237;-59
2022/01/14 00:02:49;;;;;;;5.23;4.13;;;-0.90;99.90;;;;;;5125473;27;20195;-58
2022/01/14 00:05:34;;;;;;;8.97;4.10;;;-1.00;99.90;;;;;;5108340;28;20240;-58
2022/01/14 00:08:19;;;;;;;12.20;6.10;;;-1.00;99.90;;;;;;5110503;28;20184;-60
2022/01/14 00:11:13;;;;;;;10.40;4.47;;;-1.10;99.90;;;;;;5111338;28;20189;-61
2022/01/14 00:16:49;;;;;;;12.70;6.17;;;-0.90;99.90;;;;;;5114624;28;20237;-51
2022/01/14 00:19:34;;;;;;;16.67;5.70;;;-0.80;99.90;;;;;;5110905;27;20211;-55
2022/01/14 00:22:18;;;;;;;7.60;3.13;;;-0.90;99.90;;;;;;5109612;28;20219;-54
2022/01/14 00:33:53;;;;;;;22.10;9.50;;;-0.90;99.90;;;;;;5115077;27;20199;-51
2022/01/14 00:36:38;;;;;;;13.37;5.93;;;-0.70;99.90;;;;;;5107702;27;20237;-57
2022/01/14 00:39:23;;;;;;;17.83;3.60;;;-0.60;99.90;;;;;;5111921;27;20175;-53
2022/01/14 00:42:08;;;;;;;22.70;9.97;;;-0.60;99.90;;;;;;5115853;27;20246;-51
2022/01/14 00:44:52;;;;;;;28.00;10.63;;;-0.60;99.90;;;;;;5110850;27;20196;-52
2022/01/14 00:47:39;;;;;;;13.00;5.37;;;-0.60;99.90;;;;;;5114554;27;20569;-58
2022/01/14 00:50:23;;;;;;;15.23;4.37;;;-0.60;99.90;;;;;;5116074;27;20202;-60
2022/01/14 00:53:07;;;;;;;10.60;5.13;;;-0.60;99.90;;;;;;5114558;27;20191;-56
2022/01/14 00:56:05;;;;;;;18.37;5.13;;;-0.70;99.90;;;;;;5111478;27;20188;-58
2022/01/14 01:01:56;;;;;;;11.63;4.27;;;-0.70;99.90;;;;;;5112009;27;20236;-56
2022/01/14 01:04:40;;;;;;;5.73;4.60;;;-0.80;99.90;;;;;;5113742;27;20214;-58
2022/01/14 01:07:25;;;;;;;14.77;6.40;;;-0.80;99.90;;;;;;5115005;27;20280;-55
2022/01/14 01:10:11;;;;;;;14.30;3.33;;;-0.90;99.90;;;;;;5115408;27;20219;-52
2022/01/14 01:13:03;;;;;;;10.13;5.37;;;-1.10;99.90;;;;;;5112109;27;20192;-57
2022/01/14 01:15:49;;;;;;;7.00;4.23;;;-1.10;99.90;;;;;;5115252;27;20334;-55
2022/01/14 01:18:33;;;;;;;12.13;6.20;;;-0.90;99.90;;;;;;5101331;27;20210;-59
2022/01/14 01:21:18;;;;;;;4.00;3.47;;;-0.90;99.90;;;;;;5113120;27;20301;-59
2022/01/14 01:24:03;;;;;;;7.63;5.13;;;-1.00;99.90;;;;;;5112359;27;20196;-59
2022/01/14 01:26:49;;;;;;;14.10;5.30;;;-1.10;99.90;;;;;;5111908;27;20203;-55
2022/01/14 01:32:22;;;;;;;16.43;6.13;;;-1.30;99.90;;;;;;5106024;27;20200;-57
2022/01/14 01:35:07;;;;;;;5.90;3.07;;;-1.30;99.90;;;;;;5109043;27;20236;-55
2022/01/14 01:37:51;;;;;;;8.37;4.30;;;-1.20;99.90;;;;;;5112174;27;20222;-54
2022/01/14 01:40:36;;;;;;;14.67;5.40;;;-1.10;99.90;;;;;;5110829;27;20220;-54
2022/01/14 01:43:25;;;;;;;11.27;4.13;;;-1.20;99.90;;;;;;5112573;27;20215;-54
2022/01/14 01:46:09;;;;;;;9.17;4.67;;;-1.10;99.90;;;;;;5112299;27;20200;-57
2022/01/14 01:48:54;;;;;;;18.70;9.17;;;-1.00;99.90;;;;;;5109307;27;20674;-58
2022/01/14 01:51:39;;;;;;;13.20;3.63;;;-1.10;99.90;;;;;;5111409;27;20200;-56
2022/01/14 01:54:25;;;;;;;6.67;5.07;;;-1.10;99.90;;;;;;5112973;27;20249;-53
2022/01/14 01:57:09;;;;;;;3.20;2.97;;;-1.20;99.90;;;;;;5127744;27;20179;-50
2022/01/14 01:59:53;;;;;;;12.40;4.93;;;-1.10;99.90;;;;;;5107947;27;20190;-58
2022/01/14 02:02:38;;;;;;;8.40;4.67;;;-1.10;99.90;;;;;;5112438;27;20234;-55
2022/01/14 02:05:23;;;;;;;9.27;4.63;;;-1.10;99.90;;;;;;5111918;27;20188;-54
2022/01/14 02:08:07;;;;;;;10.97;4.27;;;-1.10;99.90;;;;;;5114546;27;20234;-57
2022/01/14 02:10:51;;;;;;;9.07;5.43;;;-1.00;99.90;;;;;;5112106;27;20272;-56
2022/01/14 02:13:36;;;;;;;14.17;5.00;;;-1.00;99.90;;;;;;5111675;27;20204;-58
2022/01/14 02:16:33;;;;;;;8.00;2.60;;;-1.00;99.90;;;;;;5110755;27;20246;-55
2022/01/14 02:19:24;;;;;;;10.40;4.63;;;-1.00;99.90;;;;;;5110088;27;20243;-51
2022/01/14 02:22:13;;;;;;;2.77;2.03;;;-1.00;99.90;;;;;;5114365;27;20210;-54
2022/01/14 02:25:04;;;;;;;10.60;3.53;;;-1.10;99.90;;;;;;5110296;27;20227;-56
2022/01/14 02:27:49;;;;;;;29.83;10.33;;;-1.10;99.90;;;;;;5107704;27;20254;-58
2022/01/14 02:30:41;;;;;;;12.47;5.33;;;-1.00;99.90;;;;;;5109760;27;20197;-56
2022/01/14 02:33:25;;;;;;;12.17;3.97;;;-0.90;99.90;;;;;;5112710;27;20254;-58
2022/01/14 02:36:10;;;;;;;6.37;3.43;;;-1.10;99.90;;;;;;5114714;27;20195;-52
2022/01/14 02:38:55;;;;;;;11.90;5.07;;;-1.10;99.90;;;;;;5110827;27;20195;-58
2022/01/14 02:41:42;;;;;;;8.07;3.13;;;-1.10;99.90;;;;;;5106654;27;20300;-59
2022/01/14 02:44:29;;;;;;;17.10;4.87;;;-1.00;99.90;;;;;;5114233;27;20240;-59
2022/01/14 02:47:13;;;;;;;9.37;5.43;;;-1.10;99.90;;;;;;5109999;27;20212;-53
2022/01/14 02:49:57;;;;;;;6.63;3.50;;;-1.10;99.90;;;;;;5110105;27;20195;-55
2022/01/14 02:55:35;;;;;;;7.20;2.70;;;-1.10;99.90;;;;;;5111332;27;20240;-57
2022/01/14 02:58:21;;;;;;;9.33;6.37;;;-1.10;99.90;;;;;;5113596;27;20213;-55
2022/01/14 03:01:26;;;;;;;6.10;3.43;;;-1.10;99.90;;;;;;5113688;27;20269;-55
2022/01/14 03:04:15;;;;;;;10.83;5.83;;;-1.10;99.90;;;;;;5108012;27;20265;-54
2022/01/14 03:06:59;;;;;;;6.67;4.00;;;-1.40;99.90;;;;;;5109741;27;20227;-53
2022/01/14 03:09:43;;;;;;;12.17;5.03;;;-1.30;99.90;;;;;;5107030;27;20270;-60
2022/01/14 03:12:28;;;;;;;7.40;2.83;;;-1.30;99.90;;;;;;5109628;27;20188;-58
2022/01/14 03:15:14;;;;;;;8.43;4.83;;;-1.30;99.90;;;;;;5108517;27;20219;-57
2022/01/14 03:17:58;;;;;;;17.63;4.97;;;-1.30;99.90;;;;;;5108767;27;20199;-52
2022/01/14 03:20:48;;;;;;;3.50;2.80;;;-1.60;99.90;;;;;;5103427;27;20224;-54
2022/01/14 03:23:32;;;;;;;7.90;3.50;;;-1.60;99.90;;;;;;5109094;27;20239;-50
2022/01/14 03:26:20;;;;;;;4.47;3.10;;;-1.50;99.90;;;;;;5110212;27;20225;-54
2022/01/14 03:29:05;;;;;;;19.07;8.97;;;-1.40;99.90;;;;;;5111268;27;20199;-53
2022/01/14 03:31:49;;;;;;;11.70;5.63;;;-1.40;99.90;;;;;;5108922;27;20298;-57
2022/01/14 03:34:34;;;;;;;7.27;4.63;;;-1.30;99.90;;;;;;5102610;28;20286;-55
2022/01/14 03:37:18;;;;;;;12.20;5.83;;;-1.20;99.90;;;;;;5101636;28;20191;-53
2022/01/14 03:40:04;;;;;;;5.67;5.00;;;-1.20;99.90;;;;;;5102836;28;20181;-56
2022/01/14 03:42:49;;;;;;;23.63;7.93;;;-1.20;99.90;;;;;;5101888;28;20254;-58
2022/01/14 03:45:33;;;;;;;11.03;4.07;;;-1.20;99.90;;;;;;5101875;28;20195;-50
2022/01/14 03:48:19;;;;;;;6.60;3.67;;;-1.20;99.90;;;;;;5102720;28;20222;-50
2022/01/14 03:51:04;;;;;;;12.93;3.93;;;-1.20;99.90;;;;;;5101932;28;20184;-47
2022/01/14 03:53:48;;;;;;;10.23;6.43;;;-1.20;99.90;;;;;;5101892;28;20196;-47
2022/01/14 03:56:33;;;;;;;5.97;3.40;;;-1.20;99.90;;;;;;5101850;28;20200;-50
2022/01/14 03:59:17;;;;;;;7.73;3.47;;;-1.30;99.90;;;;;;5100557;28;20195;-53
2022/01/14 04:02:02;;;;;;;10.47;5.00;;;-1.20;99.90;;;;;;5101830;28;20242;-52
2022/01/14 04:04:47;;;;;;;12.33;4.43;;;-1.20;99.90;;;;;;5101403;28;20257;-56
2022/01/14 04:07:31;;;;;;;9.67;5.53;;;-1.30;99.90;;;;;;5102445;28;20287;-58
2022/01/14 04:10:17;;;;;;;11.43;4.70;;;-1.30;99.90;;;;;;5105591;28;20191;-55
2022/01/14 04:13:06;;;;;;;11.10;4.50;;;-1.20;99.90;;;;;;5104433;28;20246;-56
2022/01/14 04:15:50;;;;;;;4.77;3.70;;;-1.20;99.90;;;;;;5105158;28;20203;-54
2022/01/14 04:18:35;;;;;;;6.80;4.30;;;-1.20;99.90;;;;;;5105787;28;20223;-49
2022/01/14 04:21:20;;;;;;;13.50;5.83;;;-1.20;99.90;;;;;;5121085;27;20231;-55
2022/01/14 04:24:04;;;;;;;10.20;5.00;;;-1.20;99.90;;;;;;5126820;27;20195;-52
2022/01/14 04:26:49;;;;;;;9.93;3.43;;;-1.30;99.90;;;;;;5126258;27;20195;-54
2022/01/14 04:29:33;;;;;;;17.83;5.30;;;-1.30;99.90;;;;;;5124579;27;20233;-56
2022/01/14 04:32:17;;;;;;;8.80;4.23;;;-1.20;99.90;;;;;;5126464;27;20217;-59
2022/01/14 04:35:01;;;;;;;7.00;3.73;;;-1.20;99.90;;;;;;5125175;27;20223;-55
2022/01/14 04:37:46;;;;;;;5.57;3.03;;;-1.20;99.90;;;;;;5125306;27;20380;-55
2022/01/14 04:40:31;;;;;;;10.37;4.40;;;-1.20;99.90;;;;;;5125734;27;20214;-57
2022/01/14 04:43:18;;;;;;;8.87;5.00;;;-1.20;99.90;;;;;;5124450;27;20191;-51
2022/01/14 04:46:35;;;;;;;7.87;3.67;;;-1.30;99.90;;;;;;5125814;27;20219;-51
2022/01/14 04:49:07;;;;;;;7.17;4.63;;;-1.40;99.90;;;;;;5126866;27;20353;-56
2022/01/14 04:51:52;;;;;;;5.83;3.87;;;-1.40;99.90;;;;;;5124596;27;20212;-56
2022/01/14 04:54:36;;;;;;;9.10;4.57;;;-1.30;99.90;;;;;;5126211;27;20187;-56
2022/01/14 04:57:21;;;;;;;12.50;4.40;;;-1.20;99.90;;;;;;5125809;27;20221;-54
2022/01/14 05:00:09;;;;;;;12.63;6.27;;;-1.20;99.90;;;;;;5123744;27;20195;-52
2022/01/14 05:02:55;;;;;;;9.10;4.93;;;-1.20;99.90;;;;;;5125648;27;20207;-53
2022/01/14 05:05:43;;;;;;;8.03;5.80;;;-1.20;99.90;;;;;;5125168;27;20245;-56
2022/01/14 05:08:39;;;;;;;14.67;5.60;;;-1.20;99.90;;;;;;5123878;27;20248;-54
2022/01/14 05:11:35;;;;;;;9.80;5.93;;;-1.30;99.90;;;;;;5125880;27;20191;-55
2022/01/14 05:14:19;;;;;;;13.97;7.13;;;-1.30;99.90;;;;;;5125585;27;20198;-59
2022/01/14 05:17:05;;;;;;;8.93;5.33;;;-1.30;99.90;;;;;;5123136;27;20274;-57
2022/01/14 05:19:49;;;;;;;6.63;3.70;;;-1.10;99.90;;;;;;5123967;27;20254;-59
2022/01/14 05:22:34;;;;;;;10.70;5.20;;;-1.00;99.90;;;;;;5124501;27;20215;-57
2022/01/14 05:25:18;;;;;;;9.63;4.33;;;-1.00;99.90;;;;;;5124167;27;20217;-55
2022/01/14 05:28:03;;;;;;;29.40;6.20;;;-1.00;99.90;;;;;;5125094;27;20213;-54
2022/01/14 05:30:47;;;;;;;11.57;5.60;;;-0.60;99.90;;;;;;5123687;27;20195;-57
2022/01/14 05:33:32;;;;;;;10.60;4.87;;;-0.60;99.90;;;;;;5119165;27;20196;-58
2022/01/14 05:36:18;;;;;;;8.30;5.53;;;-0.70;99.90;;;;;;5113448;27;20284;-59
2022/01/14 05:39:04;;;;;;;6.77;3.77;;;-0.50;99.90;;;;;;5112685;27;20279;-56
2022/01/14 05:41:49;;;;;;;15.20;4.67;;;-0.50;99.90;;;;;;5114704;27;20219;-52
2022/01/14 05:44:34;;;;;;;9.83;3.90;;;-0.30;99.90;;;;;;5114390;27;20194;-59
2022/01/14 05:47:19;;;;;;;8.17;3.93;;;-0.60;99.90;;;;;;5108168;27;20188;-54
2022/01/14 05:50:04;;;;;;;12.80;4.70;;;-1.00;99.90;;;;;;5110661;27;20192;-53
2022/01/14 05:52:49;;;;;;;9.83;5.23;;;-1.20;99.90;;;;;;5102863;28;20201;-53
2022/01/14 05:55:33;;;;;;;7.20;3.63;;;-1.30;99.90;;;;;;5102646;28;20253;-52
2022/01/14 05:58:18;;;;;;;6.40;4.53;;;-1.40;99.90;;;;;;5104362;28;20224;-59
2022/01/14 06:01:02;;;;;;;9.30;4.23;;;-1.40;99.90;;;;;;5100892;28;20224;-54
2022/01/14 06:03:47;;;;;;;7.50;4.30;;;-1.60;99.90;;;;;;5104890;28;20236;-58
2022/01/14 06:06:33;;;;;;;8.27;4.87;;;-1.80;99.90;;;;;;5100991;28;20255;-58
2022/01/14 06:09:17;;;;;;;11.47;5.13;;;-1.70;99.90;;;;;;5103401;28;20200;-54
2022/01/14 06:12:02;;;;;;;10.73;5.27;;;-1.80;99.90;;;;;;5101713;28;20208;-49
2022/01/14 06:14:46;;;;;;;10.97;3.40;;;-1.70;99.90;;;;;;5103868;28;20238;-58
2022/01/14 06:17:30;;;;;;;12.00;6.07;;;-1.50;99.90;;;;;;5101106;28;20262;-58
2022/01/14 06:20:14;;;;;;;2.67;2.10;;;-1.50;99.90;;;;;;5103486;28;20185;-48
2022/01/14 06:22:59;;;;;;;12.33;4.07;;;-1.60;99.90;;;;;;5102989;28;20288;-59
2022/01/14 06:25:43;;;;;;;16.40;4.80;;;-1.70;99.90;;;;;;5101702;28;20192;-59
2022/01/14 06:28:27;;;;;;;18.17;5.23;;;-1.60;99.90;;;;;;5102335;28;20242;-51
2022/01/14 06:31:12;;;;;;;7.97;4.43;;;-1.50;99.90;;;;;;5102393;28;20180;-59
2022/01/14 06:33:57;;;;;;;8.53;5.03;;;-1.60;99.90;;;;;;5103851;28;20262;-54
2022/01/14 06:36:45;;;;;;;11.77;4.97;;;-1.50;99.90;;;;;;5104085;28;20246;-59
2022/01/14 06:39:29;;;;;;;21.50;5.07;;;-1.60;99.90;;;;;;5098195;28;20199;-56
2022/01/14 06:42:13;;;;;;;12.47;4.70;;;-1.50;99.90;;;;;;5103018;28;20245;-50
2022/01/14 06:44:58;;;;;;;8.33;4.33;;;-1.40;99.90;;;;;;5098910;28;20245;-52
2022/01/14 06:47:42;;;;;;;9.90;4.60;;;-1.30;99.90;;;;;;5128471;27;20288;-56
2022/01/14 06:50:27;;;;;;;7.67;3.07;;;-1.30;99.90;;;;;;5102790;28;20208;-55
2022/01/14 06:53:12;;;;;;;8.23;4.83;;;-1.30;99.90;;;;;;5124261;27;20193;-58
2022/01/14 06:55:56;;;;;;;12.77;5.47;;;-1.40;99.90;;;;;;5103291;28;20199;-50
2022/01/14 06:58:41;;;;;;;2.93;2.63;;;-1.30;99.90;;;;;;5101130;28;20251;-53
2022/01/14 07:01:26;;;;;;;10.13;4.60;;;-1.30;99.90;;;;;;5097021;28;20290;-54
2022/01/14 07:04:11;;;;;;;10.10;3.77;;;-1.40;99.90;;;;;;5102808;28;20191;-55
2022/01/14 07:06:55;;;;;;;8.67;4.30;;;-1.50;99.90;;;;;;5103546;27;20246;-51
2022/01/14 07:09:58;;;;;;;11.47;4.23;;;-1.40;99.90;;;;;;5098858;28;20191;-52
2022/01/14 07:12:44;;;;;;;9.00;3.80;;;-1.50;99.90;;;;;;5098093;28;20192;-51
2022/01/14 07:15:28;;;;;;;7.20;3.20;;;-1.50;99.90;;;;;;5102615;28;20203;-51
2022/01/14 07:18:15;;;;;;;10.87;5.57;;;-1.50;99.90;;;;;;5130741;27;20192;-57
2022/01/14 07:21:00;;;;;;;9.57;3.50;;;-1.60;99.90;;;;;;5101247;28;20520;-59
2022/01/14 07:23:45;;;;;;;8.03;4.87;;;-1.60;99.90;;;;;;5100175;28;20234;-57
2022/01/14 07:26:30;;;;;;;6.67;3.37;;;-1.50;99.90;;;;;;5100877;28;20185;-50
2022/01/14 07:29:14;;;;;;;8.93;3.10;;;-1.30;99.90;;;;;;5120056;27;20620;-55
2022/01/14 07:31:59;;;;;;;3.70;3.07;;;-1.40;99.90;;;;;;5102524;28;20183;-56
2022/01/14 07:34:45;;;;;;;5.10;4.10;;;-1.40;99.90;;;;;;5103989;28;20231;-57
2022/01/14 07:37:29;;;;;;;7.03;4.10;;;-1.40;99.90;;;;;;5104069;28;20250;-56
2022/01/14 07:40:14;;;;;;;2.60;2.40;;;-1.40;99.90;;;;;;5102436;28;20286;-58
2022/01/14 07:42:58;;;;;;;12.60;4.33;;;-1.40;99.90;;;;;;5135521;27;20208;-50
2022/01/14 07:45:43;;;;;;;3.80;2.53;;;-1.30;99.90;;;;;;5136439;27;20196;-53
2022/01/14 07:48:27;;;;;;;11.70;6.50;;;-1.30;99.90;;;;;;5106862;28;20199;-56
2022/01/14 07:51:12;;;;;;;9.33;4.37;;;-1.20;99.90;;;;;;5108756;28;20242;-55
2022/01/14 07:53:57;;;;;;;7.53;4.07;;;-1.20;99.90;;;;;;5106783;28;20184;-53
2022/01/14 07:56:45;;;;;;;10.63;4.53;;;-1.10;99.90;;;;;;5107965;28;20192;-53
2022/01/14 07:59:32;;;;;;;12.20;4.63;;;-1.00;99.90;;;;;;5108351;28;20188;-55
2022/01/14 08:02:18;;;;;;;7.00;4.70;;;-1.00;99.90;;;;;;5105043;28;20244;-53
2022/01/14 08:05:03;;;;;;;15.13;7.20;;;-1.10;99.90;;;;;;5106168;28;20280;-51
2022/01/14 08:07:51;;;;;;;14.10;4.37;;;-1.10;99.90;;;;;;5107704;28;20200;-59
2022/01/14 08:10:36;;;;;;;13.60;4.00;;;-1.00;99.90;;;;;;5105964;28;20207;-55
2022/01/14 08:13:21;;;;;;;7.37;4.43;;;-0.90;99.90;;;;;;5107372;28;20261;-55
2022/01/14 08:16:05;;;;;;;8.00;3.00;;;-0.90;99.90;;;;;;5106631;28;20195;-52
2022/01/14 08:18:50;;;;;;;9.80;3.93;;;-0.80;99.90;;;;;;5105960;28;20262;-59
2022/01/14 08:21:34;;;;;;;8.77;4.43;;;-0.90;99.90;;;;;;5107318;28;20254;-58
2022/01/14 08:24:19;;;;;;;12.23;5.03;;;-1.00;99.90;;;;;;5135203;27;20208;-53
2022/01/14 08:27:05;;;;;;;5.40;2.30;;;-1.20;99.90;;;;;;5135308;27;20218;-52
2022/01/14 08:29:50;;;;;;;3.73;3.00;;;-1.00;99.90;;;;;;5107038;28;20196;-58
2022/01/14 08:32:35;;;;;;;16.70;4.00;;;-0.90;99.90;;;;;;5135481;27;20314;-58
2022/01/14 08:35:19;;;;;;;9.20;3.87;;;-0.90;99.90;;;;;;5136406;27;20232;-61
2022/01/14 08:38:03;;;;;;;7.57;4.60;;;-0.90;99.90;;;;;;5136048;27;20195;-60
2022/01/14 08:40:49;;;;;;;11.53;5.10;;;-1.00;99.90;;;;;;5105086;28;20196;-58
2022/01/14 08:43:33;;;;;;;6.63;4.00;;;-0.90;99.90;;;;;;5107274;28;20254;-58
2022/01/14 08:46:17;;;;;;;13.33;4.10;;;-0.90;99.90;;;;;;5105718;28;20242;-60
2022/01/14 08:49:02;;;;;;;10.40;4.53;;;-0.80;99.90;;;;;;5104459;28;20191;-60
2022/01/14 08:51:49;;;;;;;11.77;5.73;;;-0.90;99.90;;;;;;5105920;28;20258;-58
2022/01/14 08:54:33;;;;;;;9.00;2.73;;;-0.90;99.90;;;;;;5101290;28;20177;-60
2022/01/14 08:57:18;;;;;;;14.97;5.90;;;-0.80;99.90;;;;;;5104895;28;20212;-54
2022/01/14 09:00:03;;;;;;;11.13;6.27;;;-0.70;99.90;;;;;;5103245;28;20288;-58
2022/01/14 09:02:48;;;;;;;7.37;4.17;;;-0.70;99.90;;;;;;5099959;28;20220;-58
2022/01/14 09:05:32;;;;;;;3.80;2.37;;;-0.40;99.90;;;;;;5104871;28;20303;-58
2022/01/14 09:08:17;;;;;;;7.07;4.37;;;-0.40;99.90;;;;;;5102456;28;20231;-55
2022/01/14 09:11:01;;;;;;;8.33;3.70;;;-0.30;99.90;;;;;;5101297;28;20218;-58
2022/01/14 09:13:45;;;;;;;7.77;3.60;;;-0.20;99.90;;;;;;5105680;28;20188;-58
2022/01/14 09:16:30;;;;;;;13.43;5.40;;;-0.40;99.90;;;;;;5102853;28;20196;-56
2022/01/14 09:19:15;;;;;;;6.33;4.87;;;-0.50;99.90;;;;;;5084624;28;20196;-55
2022/01/14 09:21:59;;;;;;;6.93;3.43;;;-0.40;99.90;;;;;;5101364;28;20280;-57
2022/01/14 09:24:45;;;;;;;13.77;3.57;;;-0.50;99.90;;;;;;5105868;28;20280;-55
2022/01/14 09:27:30;;;;;;;9.23;4.03;;;-0.40;99.90;;;;;;5106033;28;20287;-55
2022/01/14 09:30:15;;;;;;;9.40;3.97;;;-0.40;99.90;;;;;;5102258;28;20237;-58
2022/01/14 09:32:59;;;;;;;7.23;3.67;;;-0.30;99.90;;;;;;5103295;28;20215;-57
2022/01/14 09:35:46;;;;;;;7.23;5.67;;;-0.10;99.90;;;;;;5104724;28;20228;-61
2022/01/14 09:38:31;;;;;;;6.53;3.47;;;-0.10;99.90;;;;;;5104707;28;20239;-60
2022/01/14 09:41:20;;;;;;;13.60;3.57;;;-0.10;99.90;;;;;;5095623;28;20251;-58
2022/01/14 09:44:06;;;;;;;6.10;3.73;;;-0.10;99.90;;;;;;5107422;27;20235;-59
2022/01/14 09:46:51;;;;;;;16.47;6.10;;;-0.20;99.90;;;;;;5106732;27;20204;-60
2022/01/14 09:49:37;;;;;;;8.90;4.93;;;-0.50;99.90;;;;;;5103996;27;20203;-60
2022/01/14 09:52:22;;;;;;;11.20;5.10;;;-0.40;99.90;;;;;;5104078;27;20191;-59
2022/01/14 09:55:07;;;;;;;9.37;3.53;;;-0.20;99.90;;;;;;5101099;27;20234;-60
2022/01/14 09:57:54;;;;;;;5.80;3.63;;;0.00;99.90;;;;;;5101589;28;20192;-60
2022/01/14 10:00:39;;;;;;;8.77;3.73;;;0.00;99.90;;;;;;5101928;28;20290;-60
2022/01/14 10:03:25;;;;;;;11.20;3.97;;;-0.10;99.90;;;;;;5098786;28;20195;-60
2022/01/14 10:06:09;;;;;;;9.17;4.80;;;0.10;99.90;;;;;;5093274;28;20249;-59
2022/01/14 10:09:16;;;;;;;10.43;5.33;;;0.10;99.90;;;;;;5103760;28;20218;-57
2022/01/14 10:12:07;;;;;;;7.37;4.37;;;-0.40;99.90;;;;;;5102438;28;20250;-59
2022/01/14 10:14:57;;;;;;;26.77;9.27;;;-0.40;99.90;;;;;;5105629;28;20196;-59
2022/01/14 10:17:45;;;;;;;11.73;6.30;;;-0.10;99.90;;;;;;5105417;28;20196;-60
2022/01/14 10:20:37;;;;;;;11.87;4.00;;;0.10;99.90;;;;;;5103520;28;20261;-60
2022/01/14 10:23:43;;;;;;;11.13;4.50;;;0.20;99.90;;;;;;5105747;28;20291;-59
2022/01/14 10:26:27;;;;;;;9.93;4.50;;;0.30;99.90;;;;;;5105396;28;20238;-59
2022/01/14 10:29:11;;;;;;;7.73;4.47;;;0.40;99.90;;;;;;5103313;28;20196;-60
2022/01/14 10:31:56;;;;;;;8.23;5.70;;;0.40;99.90;;;;;;5104552;28;20203;-61
2022/01/14 10:34:41;;;;;;;7.40;5.23;;;0.40;99.90;;;;;;5104201;28;20250;-60
2022/01/14 10:37:32;;;;;;;8.07;4.57;;;0.50;99.90;;;;;;5103592;28;20223;-61
2022/01/14 10:40:22;;;;;;;13.47;5.30;;;0.60;99.90;;;;;;5104975;28;20200;-59
2022/01/14 10:43:09;;;;;;;10.17;5.23;;;0.50;99.90;;;;;;5104428;28;20238;-60
2022/01/14 10:45:55;;;;;;;8.97;4.37;;;0.70;99.90;;;;;;5102694;28;20188;-60
2022/01/14 10:48:46;;;;;;;11.43;5.73;;;0.60;99.90;;;;;;5104159;28;20274;-61
2022/01/14 10:51:30;;;;;;;8.10;4.77;;;0.80;99.90;;;;;;5094730;28;20215;-61
2022/01/14 10:54:38;;;;;;;12.43;5.13;;;1.00;99.90;;;;;;5132937;27;20255;-57
2022/01/14 10:57:27;;;;;;;9.10;5.07;;;0.90;99.90;;;;;;5104245;28;20251;-58
2022/01/14 11:00:19;;;;;;;8.90;4.53;;;1.00;99.90;;;;;;5103157;28;20203;-57
2022/01/14 11:03:04;;;;;;;9.90;5.63;;;1.20;99.90;;;;;;5103367;28;20200;-59
2022/01/14 11:05:48;;;;;;;11.53;4.37;;;1.00;99.90;;;;;;5104201;28;20285;-58
2022/01/14 11:08:36;;;;;;;7.27;4.47;;;1.00;99.90;;;;;;5102823;28;20188;-58
2022/01/14 11:11:21;;;;;;;11.20;4.40;;;0.90;99.90;;;;;;5103360;28;20250;-58
2022/01/14 11:14:07;;;;;;;16.30;5.27;;;1.00;99.90;;;;;;5104443;28;20246;-59
2022/01/14 11:16:52;;;;;;;11.60;6.10;;;0.80;99.90;;;;;;5103201;28;20192;-54
2022/01/14 11:19:39;;;;;;;15.23;6.93;;;0.80;99.90;;;;;;5104571;28;20227;-55
2022/01/14 11:25:28;;;;;;;10.67;4.60;;;0.90;99.90;;;;;;5083355;28;20287;-60
2022/01/14 11:28:17;;;;;;;14.03;5.40;;;0.80;99.90;;;;;;5112457;27;20192;-58
2022/01/14 11:31:29;;;;;;;8.87;4.50;;;0.80;99.90;;;;;;5119890;27;20204;-59
2022/01/14 11:34:51;;;;;;;11.63;6.07;;;1.10;99.90;;;;;;5102413;28;20405;-58
2022/01/14 11:37:36;;;;;;;12.47;5.73;;;1.20;99.90;;;;;;5091354;28;20223;-58
2022/01/14 11:40:21;;;;;;;13.40;5.40;;;1.10;99.90;;;;;;5102336;28;20254;-57
2022/01/14 11:43:07;;;;;;;15.83;5.70;;;0.80;99.90;;;;;;5099671;28;20200;-57
2022/01/14 11:45:52;;;;;;;10.40;4.83;;;0.90;99.90;;;;;;5100896;28;20241;-59
2022/01/14 11:48:42;;;;;;;12.40;5.07;;;0.90;99.90;;;;;;5103027;28;20260;-59
2022/01/14 11:51:26;;;;;;;11.03;5.50;;;1.00;99.90;;;;;;5101591;28;20184;-57
2022/01/14 11:54:10;;;;;;;8.13;4.80;;;1.30;99.90;;;;;;5100685;28;20199;-59
2022/01/14 11:56:55;;;;;;;9.40;5.40;;;1.40;99.90;;;;;;5100689;28;20204;-56
2022/01/14 11:59:41;;;;;;;16.77;5.63;;;1.60;99.90;;;;;;5101115;28;20192;-59
2022/01/14 12:02:32;;;;;;;16.43;6.17;;;1.90;99.90;;;;;;5101985;28;20216;-57
2022/01/14 12:05:19;;;;;;;9.10;5.27;;;2.00;99.90;;;;;;5100356;28;20216;-50
2022/01/14 12:08:04;;;;;;;12.73;5.60;;;1.80;99.90;;;;;;5101014;28;20200;-62
2022/01/14 12:11:04;;;;;;;15.93;5.10;;;2.10;99.90;;;;;;5099077;28;20211;-51
2022/01/14 12:13:55;;;;;;;15.77;7.13;;;2.00;99.90;;;;;;5099032;28;20188;-56
2022/01/14 12:16:59;;;;;;;11.30;6.17;;;2.00;99.90;;;;;;5100559;28;20212;-59
2022/01/14 12:19:45;;;;;;;14.33;6.40;;;2.10;99.90;;;;;;5101645;28;20262;-63
2022/01/14 12:22:29;;;;;;;14.23;4.30;;;2.10;99.90;;;;;;5107242;28;20220;-62
2022/01/14 12:25:14;;;;;;;11.33;5.93;;;2.20;99.90;;;;;;5122205;28;20233;-64
2022/01/14 12:28:23;;;;;;;14.63;5.30;;;2.10;99.90;;;;;;5124846;27;20184;-66
2022/01/14 12:31:09;;;;;;;14.33;6.93;;;2.20;99.90;;;;;;5117617;27;20212;-63
2022/01/14 12:34:07;;;;;;;18.33;7.87;;;2.20;99.90;;;;;;5087309;28;20267;-63
2022/01/14 12:36:51;;;;;;;15.13;5.87;;;2.50;99.90;;;;;;5112301;27;20304;-68
2022/01/14 12:39:38;;;;;;;14.73;7.90;;;2.60;99.90;;;;;;5122443;27;20201;-66
2022/01/14 12:42:24;;;;;;;16.33;9.07;;;2.70;99.90;;;;;;5101534;27;20216;-50
2022/01/14 12:45:10;;;;;;;8.50;5.40;;;2.60;99.90;;;;;;5106654;27;20203;-58
2022/01/14 12:48:56;;;;;;;15.60;7.30;;;2.60;99.90;;;;;;5105605;28;20215;-62
2022/01/14 12:51:34;;;;;;;12.33;7.57;;;2.60;99.90;;;;;;5108634;27;20202;-57
2022/01/14 12:54:18;;;;;;;11.13;5.97;;;2.10;99.90;;;;;;5126546;27;20195;-62
2022/01/14 12:57:03;;;;;;;10.47;7.13;;;2.00;99.90;;;;;;5120117;27;20215;-63
2022/01/14 12:59:50;;;;;;;11.33;6.10;;;1.90;99.90;;;;;;5108944;27;20194;-58
2022/01/14 13:02:35;;;;;;;9.43;4.93;;;2.10;99.90;;;;;;5106167;28;20270;-62
2022/01/14 13:05:24;;;;;;;12.37;6.50;;;2.30;99.90;;;;;;5107494;27;20269;-65
2022/01/14 13:08:09;;;;;;;9.90;5.47;;;2.40;99.90;;;;;;5101474;27;20188;-65
2022/01/14 13:11:03;;;;;;;10.67;4.10;;;2.50;99.90;;;;;;5112195;27;20253;-56
2022/01/14 13:14:03;;;;;;;11.03;6.33;;;2.40;99.90;;;;;;5108951;27;20220;-64
2022/01/14 13:16:50;;;;;;;12.37;5.77;;;2.30;99.90;;;;;;5122217;27;20225;-61
2022/01/14 13:19:39;;;;;;;10.53;5.33;;;2.10;99.90;;;;;;5105274;28;20254;-60
2022/01/14 13:22:24;;;;;;;10.07;6.23;;;2.10;99.90;;;;;;5098782;28;20286;-64
2022/01/14 13:25:22;;;;;;;10.30;5.90;;;2.30;99.90;;;;;;5104376;28;20246;-63
2022/01/14 13:28:07;;;;;;;11.53;5.63;;;2.30;99.90;;;;;;5103262;28;20277;-57
2022/01/14 13:30:51;;;;;;;14.33;6.60;;;2.30;99.90;;;;;;5103269;28;20193;-64
2022/01/14 13:33:37;;;;;;;9.37;5.43;;;2.30;99.90;;;;;;5100011;28;20195;-59
2022/01/14 13:36:21;;;;;;;12.17;6.23;;;2.10;99.90;;;;;;5100218;28;20204;-61
2022/01/14 13:39:10;;;;;;;9.57;5.90;;;2.10;99.90;;;;;;5102244;28;20187;-66
2022/01/14 13:41:54;;;;;;;10.50;4.50;;;1.90;99.90;;;;;;5101837;28;20275;-62
2022/01/14 13:44:38;;;;;;;10.63;6.73;;;1.90;99.90;;;;;;5101649;28;20296;-65
2022/01/14 13:47:25;;;;;;;9.80;5.57;;;1.80;99.90;;;;;;5103025;28;20196;-62
2022/01/14 13:50:14;;;;;;;8.63;6.67;;;2.00;99.90;;;;;;5085228;28;20247;-58
2022/01/14 13:53:01;;;;;;;12.90;6.60;;;2.00;99.90;;;;;;5084863;28;20240;-63
2022/01/14 13:55:50;;;;;;;12.87;6.07;;;2.00;99.90;;;;;;5097661;28;20224;-65
2022/01/14 13:58:39;;;;;;;14.13;6.13;;;2.00;99.90;;;;;;5102713;27;20623;-62
2022/01/14 14:01:23;;;;;;;12.30;6.10;;;2.10;99.90;;;;;;5112375;27;20231;-63
2022/01/14 14:04:14;;;;;;;12.53;6.53;;;2.20;99.90;;;;;;5104260;28;20192;-61
2022/01/14 14:07:07;;;;;;;14.63;7.33;;;2.10;99.90;;;;;;5103505;28;20201;-59
2022/01/14 14:10:21;;;;;;;17.23;5.83;;;2.20;99.90;;;;;;5101360;28;20191;-61
2022/01/14 14:13:28;;;;;;;15.57;6.27;;;2.20;99.90;;;;;;5101411;28;20211;-53
2022/01/14 14:16:27;;;;;;;8.47;5.80;;;2.30;99.90;;;;;;5106449;28;20214;-66
2022/01/14 14:19:12;;;;;;;14.63;6.67;;;2.40;99.90;;;;;;5090414;28;20191;-62
2022/01/14 14:22:08;;;;;;;12.17;7.40;;;2.80;99.90;;;;;;5103822;28;20296;-63
2022/01/14 14:25:06;;;;;;;13.63;7.23;;;4.30;99.90;;;;;;5103972;28;20264;-53
2022/01/14 14:28:04;;;;;;;16.07;7.50;;;5.80;99.90;;;;;;5101770;28;20228;-61
2022/01/14 14:30:50;;;;;;;14.50;6.23;;;6.40;99.90;;;;;;5102683;28;20238;-59
2022/01/14 14:33:34;;;;;;;13.40;6.63;;;7.00;99.90;;;;;;5103584;28;20184;-56
2022/01/14 14:36:21;;;;;;;12.13;6.67;;;7.20;99.90;;;;;;5102956;28;20314;-63
2022/01/14 14:39:06;;;;;;;9.77;7.03;;;7.40;99.90;;;;;;5083412;28;20196;-60
2022/01/14 14:41:50;;;;;;;11.17;6.40;;;7.20;99.90;;;;;;5086830;28;20274;-60
2022/01/14 14:44:34;;;;;;;12.53;6.37;;;6.50;99.90;;;;;;5127944;27;20263;-51
2022/01/14 14:47:19;;;;;;;13.87;6.03;;;6.80;99.90;;;;;;5101899;28;20208;-53
2022/01/14 14:50:05;;;;;;;13.77;6.87;;;6.60;99.90;;;;;;5102174;28;20269;-55